createdAt,value
2022-11-09T00:07:33.794Z,94492.53
2022-11-09T00:12:44.241Z,94489.09
2022-11-09T00:15:10.627Z,94492.31
2022-11-09T00:20:26.226Z,94490.47
2022-11-09T00:22:52.609Z,94499.25
2022-11-09T00:28:02.912Z,94494.34
2022-11-09T00:33:12.884Z,94494.34
2022-11-09T00:35:39.284Z,94499.25
2022-11-09T00:40:55.866Z,94484.59
2022-11-09T00:43:22.413Z,94482.41
2022-11-09T00:45:48.934Z,94479.97
2022-11-09T00:51:10.600Z,94470.00
2022-11-09T00:53:36.994Z,94467.78
2022-11-09T00:56:03.366Z,94469.63
2022-11-09T00:58:29.744Z,94478.53
2022-11-09T01:00:56.179Z,94473.03
2022-11-09T01:03:22.618Z,94467.53
2022-11-09T01:06:03.980Z,94472.81
2022-11-09T01:08:30.368Z,94468.59
2022-11-09T01:10:56.837Z,94464.28
2022-11-09T01:16:06.980Z,94475.06
2022-11-09T01:18:33.349Z,94467.56
2022-11-09T01:20:59.736Z,94473.22
2022-11-09T01:23:26.140Z,94475.47
2022-11-09T01:25:52.517Z,94476.44
2022-11-09T01:31:14.051Z,94480.75
2022-11-09T01:33:40.432Z,94485.56
2022-11-09T01:36:06.798Z,94484.59
2022-11-09T01:38:33.173Z,94487.03
2022-11-09T01:40:59.549Z,94488.41
2022-11-09T01:46:09.551Z,94486.19
2022-11-09T01:48:38.843Z,94494.72
2022-11-09T01:51:05.279Z,94490.03
2022-11-09T02:01:55.964Z,94508.19
2022-11-09T02:04:22.449Z,94522.81
2022-11-09T02:06:48.871Z,94523.59
2022-11-09T02:11:58.963Z,94522.78
2022-11-09T02:14:25.343Z,94521.56
2022-11-09T02:19:41.885Z,94522.53
2022-11-09T02:22:08.256Z,94521.34
2022-11-09T02:24:34.634Z,94518.25
2022-11-09T02:29:56.637Z,94511.72
2022-11-09T02:32:23.027Z,94509.28
2022-11-09T02:34:49.404Z,94502.78
2022-11-09T02:37:15.785Z,94504.41
2022-11-09T02:39:42.182Z,94503.59
2022-11-09T02:42:10.494Z,94497.31
2022-11-09T02:44:59.207Z,94491.81
2022-11-09T02:47:25.584Z,94491.81
2022-11-09T02:49:51.968Z,94492.63
2022-11-09T02:52:18.354Z,94494.66
2022-11-09T03:17:19.969Z,94517.69
2022-11-09T03:22:36.611Z,94522.75
2022-11-09T03:27:52.928Z,94507.09
2022-11-09T03:30:19.316Z,94511.75
2022-11-09T03:32:53.764Z,94519.47
2022-11-09T03:35:20.146Z,94536.91
2022-11-09T03:37:46.534Z,94546.06
2022-11-09T03:45:46.739Z,94566.88
2022-11-09T03:48:13.111Z,94549.81
2022-11-09T03:56:14.184Z,94572.44
2022-11-09T03:58:40.565Z,94576.28
2022-11-09T04:01:06.942Z,94587.03
2022-11-09T04:03:33.334Z,94589.50
2022-11-09T04:06:10.097Z,94603.06
2022-11-09T04:11:27.147Z,94593.56
2022-11-09T04:13:53.538Z,94578.13
2022-11-09T04:16:19.970Z,94575.09
2022-11-09T04:18:46.339Z,94577.16
2022-11-09T04:21:12.720Z,94576.34
2022-11-09T04:23:39.081Z,94580.06
2022-11-09T04:26:05.512Z,94575.41
2022-11-09T04:31:25.558Z,94579.06
2022-11-09T04:33:54.332Z,94569.16
2022-11-09T04:36:20.715Z,94573.66
2022-11-09T04:38:47.077Z,94574.50
2022-11-09T05:06:45.307Z,94589.56
2022-11-09T05:09:11.741Z,94596.53
2022-11-09T05:11:38.188Z,94600.19
2022-11-09T05:14:04.572Z,94597.94
2022-11-09T05:19:21.057Z,94600.84
2022-11-09T05:21:47.469Z,94605.69
2022-11-09T05:26:57.599Z,94594.75
2022-11-09T05:29:24.075Z,94596.41
2022-11-09T05:31:52.443Z,94601.34
2022-11-09T05:34:19.046Z,94607.63
2022-11-09T05:36:45.460Z,94610.97
2022-11-09T05:39:12.038Z,94609.09
2022-11-09T05:41:38.430Z,94607.44
2022-11-09T05:44:13.900Z,94610.84
2022-11-09T05:46:40.303Z,94601.66
2022-11-09T05:49:06.674Z,94602.69
2022-11-09T05:51:33.037Z,94600.03
2022-11-09T05:59:39.843Z,94618.38
2022-11-09T06:02:06.255Z,94620.31
2022-11-09T06:04:32.625Z,94619.09
2022-11-09T06:06:59.063Z,94617.88
2022-11-09T06:09:25.445Z,94616.00
2022-11-09T06:14:41.841Z,94609.13
2022-11-09T06:17:08.229Z,94620.47
2022-11-09T06:19:34.737Z,94622.41
2022-11-09T06:22:01.098Z,94617.31
2022-11-09T06:27:18.132Z,94612.00
2022-11-09T06:29:47.184Z,94611.88
2022-11-09T06:32:13.555Z,94619.38
2022-11-09T06:37:30.152Z,94621.00
2022-11-09T06:39:56.534Z,94623.84
2022-11-09T06:45:13.097Z,94625.47
2022-11-09T06:47:39.468Z,94624.66
2022-11-09T06:50:05.845Z,94623.47
2022-11-09T06:52:32.227Z,94627.56
2022-11-09T06:54:58.626Z,94637.25
2022-11-09T06:57:25.014Z,94636.44
2022-11-09T06:59:51.395Z,94639.88
2022-11-09T07:02:17.892Z,94635.16
2022-11-09T07:13:10.027Z,94655.50
2022-11-09T07:15:36.294Z,94650.84
2022-11-09T07:18:02.551Z,94649.84
2022-11-09T07:20:28.808Z,94645.84
2022-11-09T07:22:55.090Z,94663.03
2022-11-09T07:25:21.356Z,94652.28
2022-11-09T07:27:47.677Z,94657.75
2022-11-09T07:30:14.005Z,94662.22
2022-11-09T07:33:07.515Z,94655.31
2022-11-09T07:35:26.630Z,94658.97
2022-11-09T07:37:52.910Z,94658.56
2022-11-09T07:40:19.180Z,94660.41
2022-11-09T07:42:45.434Z,94668.31
2022-11-09T07:45:11.689Z,94663.31
2022-11-09T07:47:37.947Z,94665.94
2022-11-09T07:50:04.215Z,94671.09
2022-11-09T07:52:30.567Z,94669.00
2022-11-09T07:54:56.816Z,94667.63
2022-11-09T07:57:23.072Z,94668.19
2022-11-09T07:59:49.346Z,94671.66
2022-11-09T08:02:16.311Z,94679.25
2022-11-09T08:04:42.631Z,94669.47
2022-11-09T08:07:08.955Z,94669.47
2022-11-09T08:09:35.285Z,94676.78
2022-11-09T08:12:01.536Z,94677.25
2022-11-09T08:14:27.793Z,94673.16
2022-11-09T08:16:54.048Z,94672.97
2022-11-09T08:19:20.325Z,94674.81
2022-11-09T08:21:46.575Z,94680.75
2022-11-09T08:24:12.834Z,94676.47
2022-11-09T08:26:39.105Z,94672.84
2022-11-09T08:29:05.356Z,94674.84
2022-11-09T08:31:31.617Z,94667.94
2022-11-09T08:33:57.973Z,94675.41
2022-11-09T08:36:24.222Z,94671.16
2022-11-09T08:38:50.472Z,94678.50
2022-11-09T08:41:16.736Z,94674.66
2022-11-09T08:43:42.984Z,94669.56
2022-11-09T08:46:09.317Z,94686.66
2022-11-09T08:48:36.140Z,94677.34
2022-11-09T08:51:02.405Z,94681.13
2022-11-09T08:53:28.657Z,94677.34
2022-11-09T08:55:54.924Z,94685.53
2022-11-09T08:58:21.412Z,94678.22
2022-11-09T09:00:47.930Z,94681.94
2022-11-09T09:03:14.193Z,94682.16
2022-11-09T09:05:40.457Z,94681.34
2022-11-09T09:08:06.707Z,94681.88
2022-11-09T09:10:32.965Z,94680.25
2022-11-09T09:12:59.210Z,94680.84
2022-11-09T09:15:25.473Z,94667.66
2022-11-09T09:17:51.735Z,94679.50
2022-11-09T09:20:18.005Z,94676.66
2022-11-09T09:22:44.359Z,94679.31
2022-11-09T09:25:10.608Z,94680.53
2022-11-09T09:27:36.855Z,94682.00
2022-11-09T09:30:03.125Z,94672.88
2022-11-09T09:32:29.384Z,94680.47
2022-11-09T09:34:55.630Z,94674.63
2022-11-09T09:37:21.882Z,94675.63
2022-11-09T09:39:48.146Z,94688.63
2022-11-09T09:42:14.410Z,94685.41
2022-11-09T09:44:40.664Z,94680.97
2022-11-09T09:47:06.915Z,94682.38
2022-11-09T09:49:33.169Z,94682.94
2022-11-09T09:51:59.428Z,94688.84
2022-11-09T09:54:25.685Z,94697.63
2022-11-09T09:56:51.944Z,94691.13
2022-11-09T09:59:18.195Z,94691.94
2022-11-09T10:01:44.446Z,94690.50
2022-11-09T10:04:10.732Z,94699.41
2022-11-09T10:06:37.157Z,94692.50
2022-11-09T10:09:03.499Z,94695.69
2022-11-09T10:11:30.865Z,94691.03
2022-11-09T10:13:57.125Z,94696.31
2022-11-09T10:16:23.377Z,94693.66
2022-11-09T10:18:49.638Z,94691.47
2022-11-09T10:21:15.895Z,94690.88
2022-11-09T10:23:42.156Z,94679.75
2022-11-09T10:26:14.458Z,94681.94
2022-11-09T10:29:13.749Z,94684.16
2022-11-09T10:31:28.155Z,94681.53
2022-11-09T10:33:54.401Z,94675.03
2022-11-09T10:36:20.638Z,94675.28
2022-11-09T10:38:46.887Z,94675.84
2022-11-09T10:41:13.157Z,94669.13
2022-11-09T10:43:39.412Z,94666.72
2022-11-09T10:46:05.686Z,94666.94
2022-11-09T10:48:31.973Z,94666.34
2022-11-09T10:50:58.211Z,94667.56
2022-11-09T10:53:24.452Z,94666.72
2022-11-09T10:55:50.701Z,94654.94
2022-11-09T10:58:17.060Z,94659.78
2022-11-09T11:00:43.429Z,94653.31
2022-11-09T11:03:09.757Z,94650.69
2022-11-09T11:05:36.021Z,94653.38
2022-11-09T11:08:02.298Z,94651.72
2022-11-09T11:10:28.554Z,94658.00
2022-11-09T11:12:54.809Z,94658.16
2022-11-09T11:15:21.062Z,94652.72
2022-11-09T11:17:47.315Z,94644.78
2022-11-09T11:20:13.560Z,94639.09
2022-11-09T11:22:39.817Z,94642.75
2022-11-09T11:25:06.064Z,94645.41
2022-11-09T11:27:32.334Z,94638.81
2022-11-09T11:29:58.595Z,94637.19
2022-11-09T11:32:25.200Z,94639.66
2022-11-09T11:35:00.107Z,94638.59
2022-11-09T11:37:27.475Z,94644.50
2022-11-09T11:39:53.724Z,94647.56
2022-11-09T11:42:19.985Z,94643.28
2022-11-09T11:44:52.676Z,94634.38
2022-11-09T11:47:23.082Z,94634.31
2022-11-09T11:49:49.338Z,94642.25
2022-11-09T11:52:15.595Z,94639.41
2022-11-09T11:54:41.862Z,94630.06
2022-11-09T11:57:08.107Z,94633.56
2022-11-09T11:59:34.349Z,94637.28
2022-11-09T12:02:00.615Z,94633.81
2022-11-09T12:04:30.956Z,94630.78
2022-11-09T12:06:58.503Z,94630.41
2022-11-09T12:09:24.781Z,94628.16
2022-11-09T12:11:51.085Z,94623.09
2022-11-09T12:14:17.350Z,94639.78
2022-11-09T12:16:43.601Z,94630.25
2022-11-09T12:19:09.840Z,94637.34
2022-11-09T12:21:36.096Z,94627.41
2022-11-09T12:24:02.339Z,94627.97
2022-11-09T12:26:28.591Z,94625.97
2022-11-09T12:28:54.840Z,94629.44
2022-11-09T12:31:21.100Z,94624.13
2022-11-09T12:33:47.356Z,94630.03
2022-11-09T12:36:13.925Z,94624.75
2022-11-09T12:41:30.882Z,94627.19
2022-11-09T12:43:57.142Z,94628.25
2022-11-09T12:46:23.389Z,94618.28
2022-11-09T12:48:49.649Z,94619.50
2022-11-09T12:51:15.910Z,94618.53
2022-11-09T12:53:42.152Z,94612.25
2022-11-09T12:56:08.392Z,94606.78
2022-11-09T12:58:34.653Z,94611.66
2022-11-09T13:01:00.900Z,94608.22
2022-11-09T13:03:27.158Z,94602.50
2022-11-09T13:05:56.239Z,94599.50
2022-11-09T13:08:26.119Z,94610.69
2022-11-09T13:10:52.375Z,94604.34
2022-11-09T13:13:18.993Z,94609.66
2022-11-09T13:18:37.046Z,94615.34
2022-11-09T13:24:00.941Z,94611.72
2022-11-09T13:26:28.135Z,94616.22
2022-11-09T13:28:54.374Z,94614.19
2022-11-09T13:31:20.621Z,94611.41
2022-11-09T13:33:46.901Z,94626.63
2022-11-09T13:36:13.147Z,94631.69
2022-11-09T13:38:39.405Z,94632.53
2022-11-09T13:41:05.750Z,94633.16
2022-11-09T13:43:32.013Z,94638.00
2022-11-09T13:45:58.264Z,94642.25
2022-11-09T13:48:24.521Z,94643.09
2022-11-09T14:07:31.067Z,94672.72
2022-11-09T14:10:05.517Z,94678.84
2022-11-09T14:12:31.906Z,94679.44
2022-11-09T14:14:58.150Z,94680.38
2022-11-09T14:17:24.394Z,94692.78
2022-11-09T14:19:50.662Z,94691.72
2022-11-09T14:22:16.928Z,94694.38
2022-11-09T14:24:43.419Z,94706.38
2022-11-09T14:27:09.676Z,94715.13
2022-11-09T14:29:35.984Z,94725.75
2022-11-09T14:32:02.242Z,94737.47
2022-11-09T14:34:28.505Z,94746.97
2022-11-09T14:36:54.809Z,94738.84
2022-11-09T14:42:11.278Z,94747.66
2022-11-09T14:44:37.531Z,94740.34
2022-11-09T14:47:03.774Z,94738.63
2022-11-09T14:57:53.786Z,94749.63
2022-11-09T15:00:20.025Z,94755.19
2022-11-09T15:02:46.319Z,94756.41
2022-11-09T15:05:12.562Z,94756.41
2022-11-09T15:07:38.843Z,94761.28
2022-11-09T15:10:05.101Z,94761.88
2022-11-09T15:12:31.360Z,94768.66
2022-11-09T15:14:57.630Z,94770.03
2022-11-09T15:17:23.885Z,94783.25
2022-11-09T15:19:50.119Z,94792.47
2022-11-09T15:22:16.366Z,94791.25
2022-11-09T15:24:46.171Z,94799.16
2022-11-09T15:27:12.646Z,94798.59
2022-11-09T15:29:38.907Z,94802.63
2022-11-09T15:32:09.420Z,94802.63
2022-11-09T15:45:55.858Z,94799.63
2022-11-09T15:48:22.687Z,94800.34
2022-11-09T15:50:49.284Z,94791.16
2022-11-09T15:53:15.537Z,94796.25
2022-11-09T15:55:41.791Z,94789.97
2022-11-09T15:58:08.041Z,94792.75
2022-11-09T16:00:34.350Z,94795.19
2022-11-09T16:03:00.643Z,94797.63
2022-11-09T16:05:26.883Z,94795.81
2022-11-09T16:07:53.125Z,94802.50
2022-11-09T16:10:19.380Z,94803.56
2022-11-09T16:12:46.553Z,94803.56
2022-11-09T16:15:12.940Z,94805.53
2022-11-09T16:17:39.198Z,94811.19
2022-11-09T16:20:05.468Z,94810.38
2022-11-09T16:22:31.715Z,94812.41
2022-11-09T16:24:57.951Z,94819.72
2022-11-09T16:30:10.450Z,94826.19
2022-11-09T16:32:36.719Z,94838.97
2022-11-09T16:35:25.548Z,94838.34
2022-11-09T16:37:49.201Z,94843.44
2022-11-09T16:40:15.452Z,94847.91
2022-11-09T16:45:33.214Z,94859.34
2022-11-09T16:48:00.174Z,94862.38
2022-11-09T16:50:26.486Z,94855.63
2022-11-09T16:52:52.732Z,94857.47
2022-11-09T16:55:18.988Z,94875.50
2022-11-09T16:57:45.243Z,94862.28
2022-11-09T17:03:01.810Z,94874.06
2022-11-09T17:05:28.065Z,94871.22
2022-11-09T17:10:45.259Z,94872.25
2022-11-09T17:13:11.510Z,94871.22
2022-11-09T17:15:37.746Z,94877.22
2022-11-09T17:20:54.036Z,94874.19
2022-11-09T17:23:20.289Z,94872.59
2022-11-09T17:28:42.940Z,94883.56
2022-11-09T17:37:03.697Z,94890.25
2022-11-09T17:39:30.792Z,94887.78
2022-11-09T17:41:57.049Z,94893.25
2022-11-09T17:44:23.316Z,94899.56
2022-11-09T17:46:49.569Z,94904.03
2022-11-09T17:49:15.860Z,94914.59
2022-11-09T17:51:42.108Z,94909.69
2022-11-09T17:54:08.372Z,94912.69
2022-11-09T17:56:34.627Z,94911.44
2022-11-09T17:59:00.866Z,94916.94
2022-11-09T18:01:27.174Z,94919.09
2022-11-09T18:06:44.472Z,94922.69
2022-11-09T18:09:39.825Z,94916.97
2022-11-09T18:14:46.920Z,94920.22
2022-11-09T18:20:03.402Z,94926.72
2022-11-09T18:22:29.654Z,94933.06
2022-11-09T18:27:39.666Z,94938.44
2022-11-09T18:30:05.910Z,94928.28
2022-11-09T18:35:13.788Z,94935.81
2022-11-09T18:37:40.029Z,94935.56
2022-11-09T18:40:06.272Z,94936.75
2022-11-09T18:42:32.520Z,94937.56
2022-11-09T18:44:58.777Z,94936.56
2022-11-09T18:47:25.092Z,94933.94
2022-11-09T18:49:51.336Z,94934.75
2022-11-09T18:52:17.591Z,94936.38
2022-11-09T18:54:43.928Z,94940.84
2022-11-09T18:57:10.622Z,94940.38
2022-11-09T18:59:36.896Z,94939.38
2022-11-09T19:02:03.171Z,94948.97
2022-11-09T19:04:29.415Z,94941.41
2022-11-09T19:15:19.171Z,94957.00
2022-11-09T19:20:27.099Z,94966.44
2022-11-09T19:22:59.767Z,94973.28
2022-11-09T19:25:26.017Z,94965.78
2022-11-09T19:27:52.263Z,94966.88
2022-11-09T19:35:52.725Z,94961.88
2022-11-09T19:38:28.257Z,94959.72
2022-11-09T19:40:54.511Z,94969.47
2022-11-09T19:43:21.112Z,94970.47
2022-11-09T19:45:47.607Z,94971.09
2022-11-09T19:48:13.845Z,94977.72
2022-11-09T19:50:40.086Z,94979.19
2022-11-09T19:53:06.351Z,94986.84
2022-11-09T19:55:32.591Z,94990.94
2022-11-09T19:57:58.825Z,94990.63
2022-11-09T20:00:25.065Z,94995.84
2022-11-09T20:02:51.324Z,94992.56
2022-11-09T20:13:42.005Z,95012.03
2022-11-09T20:16:08.273Z,95012.78
2022-11-09T20:18:34.668Z,95014.34
2022-11-09T20:21:00.944Z,95017.59
2022-11-09T20:23:27.207Z,95025.53
2022-11-09T20:25:53.565Z,95018.94
2022-11-09T20:28:20.210Z,95027.53
2022-11-09T20:30:46.897Z,95033.25
2022-11-09T20:33:13.140Z,95032.63
2022-11-09T20:35:42.996Z,95032.63
2022-11-09T20:38:12.935Z,95039.91
2022-11-09T20:40:39.210Z,95040.06
2022-11-09T20:43:05.476Z,95042.56
2022-11-09T20:45:31.730Z,95039.25
2022-11-09T20:48:10.463Z,95049.00
2022-11-09T20:50:40.827Z,95049.38
2022-11-09T20:53:07.070Z,95051.81
2022-11-09T20:55:33.314Z,95053.47
2022-11-09T20:57:59.583Z,95063.19
2022-11-09T21:00:25.827Z,95056.91
2022-11-09T21:02:52.083Z,95063.19
2022-11-09T21:05:18.339Z,95059.56
2022-11-09T21:07:44.591Z,95065.66
2022-11-09T21:10:10.836Z,95057.59
2022-11-09T21:12:37.094Z,95055.75
2022-11-09T21:15:03.344Z,95059.03
2022-11-09T21:17:29.591Z,95068.97
2022-11-09T21:19:55.870Z,95070.78
2022-11-09T21:22:22.115Z,95072.22
2022-11-09T21:24:48.375Z,95077.50
2022-11-09T21:27:14.629Z,95075.22
2022-11-09T21:29:40.885Z,95086.06
2022-11-09T21:32:07.166Z,95082.16
2022-11-09T21:34:36.757Z,95083.13
2022-11-09T21:37:03.502Z,95087.59
2022-11-09T21:39:29.757Z,95089.41
2022-11-09T21:41:56.005Z,95092.72
2022-11-09T21:44:22.261Z,95088.41
2022-11-09T21:46:48.514Z,95099.81
2022-11-09T21:49:14.782Z,95091.91
2022-11-09T21:51:41.029Z,95100.63
2022-11-09T21:54:07.288Z,95094.16
2022-11-09T21:56:33.541Z,95095.63
2022-11-09T21:58:59.785Z,95095.63
2022-11-09T22:01:26.099Z,95104.66
2022-11-09T22:03:52.371Z,95099.25
2022-11-09T22:06:18.637Z,95099.56
2022-11-09T22:08:44.912Z,95101.19
2022-11-09T22:11:11.221Z,95093.72
2022-11-09T22:13:37.543Z,95093.91
2022-11-09T22:16:03.804Z,95097.53
2022-11-09T22:18:30.067Z,95101.81
2022-11-09T22:20:56.324Z,95106.28
2022-11-09T22:23:22.886Z,95099.19
2022-11-09T22:25:49.475Z,95102.63
2022-11-09T22:28:15.718Z,95097.19
2022-11-09T22:30:41.977Z,95094.53
2022-11-09T22:33:08.234Z,95096.34
2022-11-09T22:35:34.482Z,95090.53
2022-11-09T22:38:00.753Z,95088.91
2022-11-09T22:40:27.049Z,95084.88
2022-11-09T22:42:53.306Z,95083.88
2022-11-09T22:45:19.563Z,95088.53
2022-11-09T22:47:45.824Z,95086.41
2022-11-09T22:50:12.076Z,95085.53
2022-11-09T22:52:38.336Z,95088.66
2022-11-09T22:55:04.600Z,95088.28
2022-11-09T22:57:30.883Z,95095.22
2022-11-09T22:59:57.152Z,95087.47
2022-11-09T23:02:23.411Z,95096.41
2022-11-09T23:04:49.673Z,95097.09
2022-11-09T23:07:15.956Z,95098.09
2022-11-09T23:09:42.220Z,95098.09
2022-11-09T23:12:08.479Z,95110.84
2022-11-09T23:14:34.741Z,95113.84
2022-11-09T23:17:01.008Z,95111.84
2022-11-09T23:19:27.262Z,95122.56
2022-11-09T23:21:53.521Z,95118.16
2022-11-09T23:24:19.781Z,95123.59
2022-11-09T23:26:46.041Z,95127.69
2022-11-09T23:29:12.321Z,95119.59
2022-11-09T23:31:38.571Z,95129.34
2022-11-09T23:34:09.777Z,95126.50
2022-11-09T23:36:36.364Z,95125.41
2022-11-09T23:39:02.620Z,95128.88
2022-11-09T23:41:28.872Z,95131.88
2022-11-09T23:43:55.138Z,95133.06
2022-11-09T23:46:21.487Z,95146.41
2022-11-09T23:48:47.734Z,95140.31
2022-11-09T23:51:13.988Z,95135.22
2022-11-09T23:53:40.254Z,95135.03
2022-11-09T23:56:06.495Z,95130.50
2022-11-09T23:58:32.751Z,95135.78
